Time;durP1;ratioP1;P1;durP2;ratioP2;P2;SDS_P1;SDS_P2;PMS_P1;PMS_P2;Temp;Humidity;BMP_temperature;BMP_pressure;BME280_temperature;BME280_humidity;BME280_pressure;Samples;Min_cycle;Max_cycle;Signal;HPM_P1;HPM_P2
2023/10/10 00:00:48;;;;;;;19.10;6.00;;;18.20;90.60;;;;;;7391842;19;20007;-76
2023/10/10 00:03:19;;;;;;;16.90;6.78;;;18.10;90.50;;;;;;7412595;19;20011;-77
2023/10/10 00:05:55;;;;;;;16.77;6.00;;;18.10;90.50;;;;;;7390033;19;20003;-77
2023/10/10 00:08:28;;;;;;;11.88;6.55;;;18.10;90.60;;;;;;7384570;19;20017;-77
2023/10/10 00:10:57;;;;;;;17.67;6.30;;;18.10;90.60;;;;;;7383513;19;20410;-77
2023/10/10 00:13:26;;;;;;;13.30;6.57;;;18.00;90.50;;;;;;7384508;19;20002;-78
2023/10/10 00:16:05;;;;;;;17.60;6.68;;;18.00;90.60;;;;;;7382956;19;20011;-77
2023/10/10 00:18:35;;;;;;;12.95;6.55;;;17.90;91.00;;;;;;7382417;19;20013;-77
2023/10/10 00:21:10;;;;;;;17.40;6.90;;;17.90;90.70;;;;;;7404646;19;20006;-77
2023/10/10 00:23:42;;;;;;;15.70;6.47;;;17.90;90.80;;;;;;7385417;19;20016;-77
2023/10/10 00:26:14;;;;;;;17.45;6.90;;;17.90;90.70;;;;;;7383546;19;20378;-77
2023/10/10 00:28:45;;;;;;;17.95;7.00;;;17.90;90.80;;;;;;7382931;19;20426;-77
2023/10/10 00:31:18;;;;;;;16.83;6.57;;;17.90;90.80;;;;;;7384212;19;20074;-77
2023/10/10 00:33:50;;;;;;;15.15;6.43;;;17.80;90.80;;;;;;7384994;19;20010;-78
2023/10/10 00:36:33;;;;;;;13.60;6.47;;;17.90;90.70;;;;;;7406364;19;20095;-79
2023/10/10 00:39:22;;;;;;;12.32;6.35;;;17.90;90.70;;;;;;7381356;19;20007;-76
2023/10/10 00:41:54;;;;;;;17.52;6.07;;;17.90;90.60;;;;;;7383209;19;20263;-76
2023/10/10 00:44:26;;;;;;;9.93;6.00;;;17.90;90.50;;;;;;7382865;19;20006;-77
2023/10/10 00:47:03;;;;;;;16.27;6.95;;;17.90;90.50;;;;;;7383076;19;20019;-77
2023/10/10 00:49:34;;;;;;;16.67;6.40;;;17.90;90.50;;;;;;7383039;19;20002;-77
2023/10/10 00:52:07;;;;;;;15.40;6.38;;;17.90;90.40;;;;;;7383673;19;20003;-77
2023/10/10 00:54:43;;;;;;;17.48;6.47;;;17.90;90.50;;;;;;7383572;19;20062;-77
2023/10/10 00:57:14;;;;;;;13.88;5.93;;;17.90;90.40;;;;;;7403797;19;20010;-76
2023/10/10 00:59:46;;;;;;;19.05;6.90;;;17.90;90.30;;;;;;7381008;19;20003;-76
2023/10/10 01:02:16;;;;;;;14.77;6.50;;;17.90;90.30;;;;;;7383774;19;20003;-77
2023/10/10 01:04:55;;;;;;;17.02;5.72;;;17.90;90.30;;;;;;7384470;19;20020;-76
2023/10/10 01:07:28;;;;;;;15.82;6.15;;;17.90;90.30;;;;;;7383220;19;20264;-77
2023/10/10 01:10:11;;;;;;;12.93;5.53;;;17.90;90.30;;;;;;7383545;19;20236;-75
2023/10/10 01:12:42;;;;;;;14.38;6.43;;;17.80;90.70;;;;;;7381832;19;20011;-76
2023/10/10 01:15:23;;;;;;;12.25;6.25;;;17.80;90.30;;;;;;7404508;19;20010;-75
2023/10/10 01:17:54;;;;;;;17.45;6.22;;;17.80;90.40;;;;;;7381409;19;20394;-75
2023/10/10 01:20:37;;;;;;;18.77;6.63;;;17.70;90.40;;;;;;7381699;19;20398;-77
2023/10/10 01:23:07;;;;;;;14.95;6.60;;;17.70;90.50;;;;;;7382223;19;20013;-75
2023/10/10 01:25:47;;;;;;;13.73;6.55;;;17.70;90.50;;;;;;7382107;19;20024;-75
2023/10/10 01:28:23;;;;;;;13.43;5.97;;;17.70;90.50;;;;;;7382727;19;20002;-76
2023/10/10 01:31:03;;;;;;;15.90;6.15;;;17.60;90.50;;;;;;7382346;19;20059;-75
2023/10/10 01:33:42;;;;;;;14.27;6.57;;;17.60;90.50;;;;;;7393829;19;20011;-76
2023/10/10 01:36:19;;;;;;;13.80;7.43;;;17.60;90.50;;;;;;7403687;19;20015;-76
2023/10/10 01:39:23;;;;;;;26.20;6.97;;;17.60;90.50;;;;;;7380332;19;20081;-76
2023/10/10 01:41:53;;;;;;;12.10;6.30;;;17.50;90.70;;;;;;7381429;19;20007;-76
2023/10/10 01:44:22;;;;;;;16.30;7.13;;;17.50;90.70;;;;;;7380775;19;20075;-77
2023/10/10 01:46:53;;;;;;;18.05;6.32;;;17.50;90.70;;;;;;7381264;19;20425;-77
2023/10/10 01:49:29;;;;;;;18.35;6.20;;;17.50;90.70;;;;;;7381897;19;20019;-76
2023/10/10 01:52:01;;;;;;;18.55;6.88;;;17.50;90.70;;;;;;7382145;19;20006;-76
2023/10/10 01:54:40;;;;;;;11.43;6.05;;;17.40;90.70;;;;;;7403616;19;20299;-77
2023/10/10 01:57:19;;;;;;;14.27;6.57;;;17.40;90.80;;;;;;7380495;19;20010;-77
2023/10/10 01:59:49;;;;;;;13.70;6.68;;;17.30;90.80;;;;;;7378148;19;20020;-77
2023/10/10 02:02:18;;;;;;;13.90;6.57;;;17.30;90.80;;;;;;7379969;19;20009;-77
2023/10/10 02:04:47;;;;;;;19.98;6.72;;;17.30;90.80;;;;;;7380052;19;19999;-77
2023/10/10 02:07:22;;;;;;;13.65;6.30;;;17.30;90.90;;;;;;7380365;19;20381;-78
2023/10/10 02:10:11;;;;;;;15.63;6.47;;;17.30;90.90;;;;;;7378854;19;20007;-77
2023/10/10 02:12:44;;;;;;;14.23;6.65;;;17.30;90.90;;;;;;7379780;19;20293;-78
2023/10/10 02:15:19;;;;;;;20.08;6.10;;;17.30;91.00;;;;;;7400731;19;20239;-77
2023/10/10 02:17:51;;;;;;;13.20;6.43;;;17.20;91.00;;;;;;7380844;19;20052;-77
2023/10/10 02:20:33;;;;;;;;;;;17.30;91.00;;;;;;7387314;19;20002;-77
2023/10/10 02:23:23;;;;;;;17.83;6.30;;;17.30;91.00;;;;;;7386643;19;19978;-77
2023/10/10 02:25:53;;;;;;;18.75;6.55;;;17.20;91.20;;;;;;7387107;19;20007;-77
2023/10/10 02:28:43;;;;;;;13.05;5.65;;;17.20;90.90;;;;;;7386607;19;20007;-76
2023/10/10 02:31:13;;;;;;;22.33;6.53;;;17.10;91.00;;;;;;7384054;19;20003;-76
2023/10/10 02:33:48;;;;;;;14.52;6.47;;;17.10;90.90;;;;;;7387136;19;20006;-76
2023/10/10 02:36:30;;;;;;;17.00;6.32;;;17.10;91.00;;;;;;7409305;19;20230;-77
2023/10/10 02:39:18;;;;;;;17.58;6.28;;;17.10;91.00;;;;;;7385304;19;20007;-76
2023/10/10 02:41:52;;;;;;;16.80;5.93;;;17.10;91.40;;;;;;7386477;19;20275;-76
2023/10/10 02:44:38;;;;;;;12.20;6.47;;;17.10;90.90;;;;;;7386383;19;20327;-77
2023/10/10 02:47:08;;;;;;;13.57;6.45;;;17.10;91.00;;;;;;7386639;19;20102;-77
2023/10/10 02:49:37;;;;;;;11.50;5.50;;;17.10;91.00;;;;;;7386206;19;20007;-76
2023/10/10 02:52:07;;;;;;;13.02;6.43;;;17.10;90.90;;;;;;7385835;19;20291;-77
2023/10/10 02:54:43;;;;;;;16.08;6.22;;;17.10;90.90;;;;;;7386153;19;20007;-76
2023/10/10 02:59:59;;;;;;;12.38;6.40;;;17.10;90.80;;;;;;7383304;19;20009;-77
2023/10/10 03:02:40;;;;;;;14.23;6.53;;;17.10;90.80;;;;;;7385217;19;20263;-77
2023/10/10 03:05:15;;;;;;;12.18;6.55;;;17.20;90.70;;;;;;7385904;19;20026;-76
2023/10/10 03:07:51;;;;;;;15.27;6.25;;;17.20;90.70;;;;;;7384535;19;20003;-77
2023/10/10 03:10:41;;;;;;;14.20;6.63;;;17.20;90.60;;;;;;7385625;19;20038;-76
2023/10/10 03:13:27;;;;;;;13.80;5.93;;;17.10;90.70;;;;;;7385769;19;20032;-76
2023/10/10 03:16:10;;;;;;;15.90;6.63;;;17.10;90.70;;;;;;7385419;19;20007;-75
2023/10/10 03:18:52;;;;;;;13.15;6.25;;;17.10;90.60;;;;;;7385023;19;20007;-77
2023/10/10 03:21:25;;;;;;;15.15;6.13;;;17.10;90.70;;;;;;7407141;19;20043;-76
2023/10/10 03:23:55;;;;;;;15.55;6.82;;;17.10;90.70;;;;;;7386797;19;20006;-77
2023/10/10 03:29:36;;;;;;;20.33;5.82;;;17.00;90.80;;;;;;7382718;19;20009;-76
2023/10/10 03:34:56;;;;;;;14.75;6.43;;;17.00;90.80;;;;;;7383664;19;20011;-76
2023/10/10 03:37:30;;;;;;;12.25;5.55;;;17.00;90.70;;;;;;7385393;19;20035;-77
2023/10/10 03:40:20;;;;;;;16.88;6.28;;;17.00;90.70;;;;;;7383097;19;20050;-76
2023/10/10 05:25:42;;;;;;;10.45;5.93;;;16.20;91.50;;;;;;7382201;19;20014;-77
2023/10/10 05:28:10;;;;;;;13.40;6.05;;;16.20;91.60;;;;;;7381994;19;20030;-77
2023/10/10 05:30:44;;;;;;;18.05;6.80;;;16.20;91.50;;;;;;7380916;19;20006;-76
2023/10/10 05:33:13;;;;;;;16.40;6.78;;;16.30;91.50;;;;;;7402883;19;20006;-76
2023/10/10 05:35:47;;;;;;;19.20;6.63;;;16.30;91.60;;;;;;7380725;19;20049;-76
2023/10/10 05:38:17;;;;;;;21.80;6.18;;;16.20;91.60;;;;;;7380501;19;20044;-77
2023/10/10 05:40:47;;;;;;;21.05;7.20;;;16.20;91.50;;;;;;7380560;19;20021;-79
2023/10/10 05:43:19;;;;;;;13.35;6.00;;;16.20;91.50;;;;;;7380021;19;20011;-76
2023/10/10 05:45:48;;;;;;;;;;;16.30;91.50;;;;;;7381215;19;19907;-77
2023/10/10 05:48:17;;;;;;;;;;;16.30;91.50;;;;;;7402708;19;19918;-77
2023/10/10 05:50:48;;;;;;;;;;;16.30;91.40;;;;;;7381004;19;19914;-76
2023/10/10 05:53:18;;;;;;;12.65;5.95;;;16.30;91.40;;;;;;7382589;19;19929;-77
2023/10/10 05:55:50;;;;;;;;;;;16.30;91.30;;;;;;7378696;19;20026;-77
2023/10/10 05:58:20;;;;;;;18.40;6.10;;;16.30;91.20;;;;;;7385507;19;19935;-77
2023/10/10 06:00:49;;;;;;;;;;;16.40;91.10;;;;;;7396331;19;24071;-78
2023/10/10 06:03:17;;;;;;;;;;;16.40;91.00;;;;;;7407810;19;20021;-77
2023/10/10 06:05:49;;;;;;;12.90;6.30;;;16.40;91.00;;;;;;7382710;19;20039;-77
2023/10/10 06:08:19;;;;;;;14.40;5.80;;;16.40;90.90;;;;;;7381475;19;20006;-75
2023/10/10 06:10:48;;;;;;;;;;;16.50;90.80;;;;;;7379991;19;19910;-76
2023/10/10 06:13:17;;;;;;;14.07;5.60;;;16.50;90.80;;;;;;7379071;19;24046;-77
2023/10/10 06:15:45;;;;;;;15.30;6.35;;;16.50;90.80;;;;;;7380145;19;20014;-75
2023/10/10 06:18:18;;;;;;;11.55;5.85;;;16.50;90.70;;;;;;7403166;19;20067;-75
2023/10/10 06:20:50;;;;;;;;;;;16.50;90.60;;;;;;7379374;19;20070;-76
2023/10/10 06:23:21;;;;;;;;;;;16.50;90.70;;;;;;7381578;19;20251;-76
2023/10/10 06:25:49;;;;;;;;;;;16.50;90.70;;;;;;7380496;19;19963;-74
2023/10/10 06:28:26;;;;;;;13.80;6.28;;;16.50;90.80;;;;;;7380355;19;19907;-75
2023/10/10 06:30:55;;;;;;;15.18;5.88;;;16.40;90.90;;;;;;7380053;19;20017;-74
2023/10/10 06:33:27;;;;;;;17.25;6.30;;;16.40;91.00;;;;;;7401133;19;20066;-74
2023/10/10 06:36:32;;;;;;;11.13;5.75;;;16.40;91.10;;;;;;7378794;19;20316;-74
2023/10/10 06:41:42;;;;;;;14.63;6.22;;;16.30;91.40;;;;;;7379309;19;20006;-75
2023/10/10 06:44:13;;;;;;;12.77;5.88;;;16.30;91.50;;;;;;7379140;19;20002;-75
2023/10/10 06:46:42;;;;;;;20.10;5.68;;;16.40;91.50;;;;;;7379182;19;20358;-75
2023/10/10 06:49:12;;;;;;;14.88;5.85;;;16.50;91.50;;;;;;7379569;19;20031;-75
2023/10/10 06:51:44;;;;;;;18.60;6.20;;;16.60;91.50;;;;;;7378195;19;20010;-75
2023/10/10 06:54:26;;;;;;;13.90;5.57;;;16.70;91.50;;;;;;7400450;19;20011;-74
2023/10/10 06:57:04;;;;;;;16.13;6.20;;;16.80;91.40;;;;;;7378156;19;20006;-75
2023/10/10 06:59:35;;;;;;;12.55;6.03;;;16.90;91.30;;;;;;7378139;19;20003;-75
2023/10/10 07:04:55;;;;;;;14.52;5.65;;;17.20;91.20;;;;;;7384483;19;20007;-80
2023/10/10 07:10:37;;;;;;;13.47;5.70;;;17.30;91.20;;;;;;7385572;19;20070;-75
2023/10/10 07:13:11;;;;;;;;;;;17.30;91.10;;;;;;7387427;19;20018;-76
2023/10/10 07:15:41;;;;;;;17.50;5.93;;;17.40;91.10;;;;;;7385974;19;19914;-76
2023/10/10 07:18:14;;;;;;;15.45;5.97;;;17.50;91.10;;;;;;7411476;19;20007;-79
2023/10/10 07:50:56;;;;;;;15.15;6.35;;;17.90;91.40;;;;;;7387115;19;20044;-83
2023/10/10 08:03:21;;;;;;;31.67;6.57;;;18.10;91.30;;;;;;7379150;19;20275;-81
2023/10/10 08:05:51;;;;;;;21.27;6.18;;;18.10;91.40;;;;;;7408604;19;20081;-82
2023/10/10 08:13:55;;;;;;;25.52;6.00;;;18.20;91.40;;;;;;7389729;19;20369;-81
2023/10/10 08:23:30;;;;;;;22.25;6.45;;;18.40;91.50;;;;;;7385909;19;20043;-84
2023/10/10 08:26:26;;;;;;;21.33;7.07;;;18.40;91.60;;;;;;7388992;19;20010;-81
2023/10/10 08:29:16;;;;;;;21.40;8.15;;;18.50;91.50;;;;;;7389505;19;20053;-82
2023/10/10 08:35:14;;;;;;;18.70;6.82;;;18.70;91.60;;;;;;7391813;19;20007;-80
2023/10/10 08:37:42;;;;;;;;;;;18.70;91.60;;;;;;7389813;19;20002;-79
2023/10/10 08:40:19;;;;;;;19.17;7.15;;;18.80;91.60;;;;;;7387380;19;19911;-79
2023/10/10 08:42:50;;;;;;;22.38;7.18;;;18.80;91.60;;;;;;7388669;19;20033;-80
2023/10/10 08:45:39;;;;;;;;;;;;;;;;;;;;;
2023/10/10 08:48:12;;;;;;;19.42;6.40;;;18.90;91.70;;;;;;7385458;19;21001;-81
2023/10/10 08:50:45;;;;;;;22.25;6.85;;;18.90;91.90;;;;;;7389084;19;20014;-81
2023/10/10 08:53:34;;;;;;;19.67;7.43;;;18.90;91.80;;;;;;7387362;19;20002;-81
2023/10/10 08:59:17;;;;;;;20.30;7.10;;;19.00;91.80;;;;;;7386525;19;19998;-79
2023/10/10 09:01:47;;;;;;;22.80;6.70;;;19.10;91.80;;;;;;7386061;19;20011;-80
2023/10/10 09:04:18;;;;;;;20.60;7.05;;;19.20;91.80;;;;;;7392350;19;20007;-81
2023/10/10 09:06:58;;;;;;;24.10;6.90;;;19.20;91.90;;;;;;7393546;19;20010;-81
2023/10/10 09:13:01;;;;;;;24.73;7.13;;;19.30;92.00;;;;;;7396229;19;20003;-82
2023/10/10 09:15:35;;;;;;;24.60;7.28;;;19.40;92.10;;;;;;7407461;19;20003;-81
2023/10/10 09:18:22;;;;;;;21.77;7.20;;;19.40;92.00;;;;;;7387242;19;20319;-80
2023/10/10 09:20:51;;;;;;;24.85;7.45;;;19.50;92.10;;;;;;7384519;19;20010;-79
2023/10/10 09:23:24;;;;;;;17.38;7.07;;;19.50;92.20;;;;;;7384443;19;20006;-77
2023/10/10 09:26:09;;;;;;;17.13;6.75;;;19.60;92.20;;;;;;7384852;19;20010;-79
2023/10/10 09:28:49;;;;;;;21.60;6.53;;;19.70;92.10;;;;;;7385664;19;20028;-80
2023/10/10 09:31:26;;;;;;;18.92;6.82;;;19.70;92.20;;;;;;7385485;19;20014;-79
2023/10/10 09:33:55;;;;;;;19.92;6.28;;;19.80;92.30;;;;;;7385782;19;20020;-79
2023/10/10 09:36:29;;;;;;;30.05;7.78;;;19.80;92.40;;;;;;7404738;19;20014;-78
2023/10/10 09:39:36;;;;;;;16.98;6.45;;;19.80;92.50;;;;;;7390452;19;20016;-83
2023/10/10 09:42:23;;;;;;;21.08;6.90;;;19.80;92.50;;;;;;7364616;19;20211;-81
2023/10/10 09:57:17;;;;;;;17.83;6.40;;;19.90;92.80;;;;;;7384887;19;20119;-79
2023/10/10 09:59:53;;;;;;;18.73;7.20;;;19.90;92.70;;;;;;7381013;19;20362;-80
2023/10/10 10:02:40;;;;;;;17.42;6.72;;;20.00;92.70;;;;;;7380544;19;20002;-79
2023/10/10 10:05:15;;;;;;;18.02;6.72;;;20.00;92.70;;;;;;7382352;19;20011;-79
2023/10/10 10:08:05;;;;;;;14.98;6.18;;;20.00;92.70;;;;;;7381076;19;20007;-82
2023/10/10 10:10:52;;;;;;;19.65;7.50;;;20.10;92.60;;;;;;7381333;19;20013;-82
2023/10/10 10:13:41;;;;;;;22.23;7.43;;;20.10;92.40;;;;;;7380613;19;20007;-80
2023/10/10 10:16:34;;;;;;;12.52;6.05;;;20.10;92.10;;;;;;7381643;19;20059;-81
2023/10/10 11:01:17;;;;;;;19.13;6.35;;;21.20;86.30;;;;;;7372149;19;20362;-74
2023/10/10 11:03:46;;;;;;;16.15;6.35;;;21.30;84.80;;;;;;7385746;19;20062;-75
2023/10/10 11:06:15;;;;;;;20.92;6.15;;;21.40;83.40;;;;;;7407035;19;20007;-75
2023/10/10 11:09:23;;;;;;;16.45;5.85;;;21.40;83.40;;;;;;7385788;19;20003;-78
2023/10/10 11:11:58;;;;;;;16.02;6.22;;;21.40;83.30;;;;;;7388192;19;20260;-77
2023/10/10 11:14:29;;;;;;;22.52;6.72;;;21.50;83.40;;;;;;7387290;19;20010;-78
2023/10/10 11:17:00;;;;;;;16.30;6.00;;;21.50;83.10;;;;;;7386558;19;20009;-75
2023/10/10 11:19:42;;;;;;;17.38;6.30;;;21.60;82.70;;;;;;7386233;19;20251;-77
2023/10/10 11:22:38;;;;;;;20.17;6.25;;;21.70;82.60;;;;;;7386525;19;20007;-79
2023/10/10 11:25:11;;;;;;;18.17;6.72;;;21.80;83.00;;;;;;7391266;19;20279;-79
2023/10/10 11:27:47;;;;;;;13.90;6.45;;;21.80;80.80;;;;;;7387961;19;20025;-79
2023/10/10 11:30:24;;;;;;;20.15;6.60;;;21.90;81.20;;;;;;7413576;19;20260;-77
2023/10/10 11:33:16;;;;;;;15.80;6.07;;;22.00;80.30;;;;;;7391630;19;20094;-78
2023/10/10 11:35:47;;;;;;;15.52;6.35;;;22.10;80.30;;;;;;7386444;19;20015;-80
2023/10/10 11:38:34;;;;;;;;;;;22.20;80.20;;;;;;7385764;19;20003;-76
2023/10/10 11:41:08;;;;;;;17.13;6.00;;;22.30;79.10;;;;;;7383314;19;19924;-76
2023/10/10 11:43:39;;;;;;;15.75;5.63;;;22.50;78.60;;;;;;7384971;19;20237;-75
2023/10/10 11:46:09;;;;;;;14.43;6.13;;;22.60;78.40;;;;;;7385251;19;20011;-76
2023/10/10 11:48:47;;;;;;;18.63;6.90;;;22.80;77.00;;;;;;7384993;19;20010;-76
2023/10/10 11:51:15;;;;;;;17.50;6.72;;;22.80;77.50;;;;;;7405589;19;20015;-75
2023/10/10 11:53:46;;;;;;;17.67;7.18;;;22.90;75.50;;;;;;7384593;19;20002;-76
2023/10/10 11:56:17;;;;;;;18.08;6.70;;;23.00;74.90;;;;;;7383978;19;20279;-76
2023/10/10 11:58:49;;;;;;;14.80;7.10;;;23.00;74.60;;;;;;7383999;19;20020;-76
2023/10/10 12:01:49;;;;;;;14.45;6.72;;;23.00;73.50;;;;;;7382550;19;20042;-76
2023/10/10 12:04:20;;;;;;;15.43;6.47;;;23.10;74.30;;;;;;7383418;19;20023;-77
2023/10/10 12:06:49;;;;;;;17.73;6.35;;;23.10;74.80;;;;;;7383722;19;20017;-76
2023/10/10 12:09:19;;;;;;;18.58;6.47;;;23.10;74.70;;;;;;7405193;19;20023;-76
2023/10/10 12:11:48;;;;;;;19.83;6.45;;;23.10;74.70;;;;;;7383554;19;19999;-75
2023/10/10 12:14:19;;;;;;;14.10;6.32;;;23.10;74.30;;;;;;7383195;19;20062;-75
2023/10/10 12:16:50;;;;;;;19.17;7.03;;;23.10;74.30;;;;;;7382843;19;20096;-75
2023/10/10 12:19:21;;;;;;;;;;;23.10;74.70;;;;;;7385125;19;20013;-75
2023/10/10 12:21:51;;;;;;;33.85;6.93;;;23.20;74.40;;;;;;7382850;19;19914;-75
2023/10/10 12:24:20;;;;;;;15.23;6.43;;;23.20;73.40;;;;;;7406319;19;20375;-74
2023/10/10 12:26:54;;;;;;;19.92;7.22;;;23.30;73.70;;;;;;7383629;19;20019;-76
2023/10/10 12:29:31;;;;;;;20.00;7.10;;;23.40;73.90;;;;;;7393222;19;20002;-80
2023/10/10 12:42:53;;;;;;;18.80;6.47;;;23.80;69.30;;;;;;7372315;19;20006;-79
2023/10/10 12:45:55;;;;;;;31.45;6.35;;;23.90;69.60;;;;;;7415463;19;20028;-81
2023/10/10 12:48:24;;;;;;;12.35;6.13;;;23.90;69.30;;;;;;7414341;19;20006;-78
2023/10/10 12:51:00;;;;;;;19.58;6.75;;;24.00;68.10;;;;;;7393427;19;20026;-79
2023/10/10 12:54:00;;;;;;;12.52;6.20;;;24.00;65.50;;;;;;7395924;19;20042;-82
2023/10/10 12:56:29;;;;;;;18.58;6.60;;;24.10;65.60;;;;;;7398325;19;20311;-80
2023/10/10 13:15:06;;;;;;;17.45;6.35;;;24.60;64.40;;;;;;7302842;19;2004417;-77
2023/10/10 13:21:00;;;;;;;15.32;6.25;;;24.80;63.90;;;;;;7379764;19;20036;-76
2023/10/10 13:23:29;;;;;;;13.02;6.07;;;24.90;63.70;;;;;;7380860;19;20425;-76
2023/10/10 13:25:58;;;;;;;13.30;6.20;;;24.90;62.00;;;;;;7379434;19;20070;-77
2023/10/10 13:28:29;;;;;;;12.35;5.20;;;24.90;62.50;;;;;;7379853;19;20024;-75
2023/10/10 13:31:06;;;;;;;15.50;6.10;;;25.00;63.40;;;;;;7393782;19;20022;-80
2023/10/10 13:33:37;;;;;;;19.52;6.43;;;25.10;62.20;;;;;;7384461;19;20390;-77
2023/10/10 13:36:11;;;;;;;18.23;5.88;;;25.20;63.40;;;;;;7407548;19;20288;-78
2023/10/10 13:38:57;;;;;;;21.23;6.35;;;25.30;64.10;;;;;;7390004;19;20011;-79
2023/10/10 13:53:11;;;;;;;13.77;6.18;;;25.50;63.00;;;;;;7393411;19;20063;-80
2023/10/10 14:05:06;;;;;;;21.30;5.85;;;25.70;62.40;;;;;;7389494;19;20055;-78
2023/10/10 14:07:38;;;;;;;21.50;6.07;;;25.80;62.30;;;;;;7383096;19;20007;-78
2023/10/10 14:10:12;;;;;;;20.33;6.15;;;25.80;62.50;;;;;;7380394;19;20010;-79
2023/10/10 14:12:45;;;;;;;14.90;6.32;;;25.80;62.50;;;;;;7380786;19;20010;-77
2023/10/10 14:15:14;;;;;;;16.02;5.82;;;25.90;61.90;;;;;;7408804;19;20011;-77
2023/10/10 14:17:47;;;;;;;11.90;5.28;;;25.90;62.50;;;;;;7388318;19;19998;-79
2023/10/10 14:20:33;;;;;;;20.02;5.95;;;25.90;62.10;;;;;;7388286;19;20017;-79
2023/10/10 14:28:50;;;;;;;18.83;5.68;;;26.00;60.40;;;;;;7393689;19;20026;-78
2023/10/10 14:31:57;;;;;;;18.25;5.90;;;26.10;60.40;;;;;;7389080;19;20006;-80
2023/10/10 14:45:33;;;;;;;16.23;6.35;;;26.20;60.80;;;;;;7332392;19;20287;-79
2023/10/10 14:51:17;;;;;;;18.40;5.40;;;26.20;61.30;;;;;;7415269;19;19979;-77
2023/10/10 14:57:24;;;;;;;14.13;5.55;;;26.20;59.70;;;;;;7410537;19;20406;-79
2023/10/10 14:59:55;;;;;;;14.30;6.07;;;26.20;59.20;;;;;;7407568;19;20006;-78
2023/10/10 15:05:37;;;;;;;11.70;5.95;;;26.20;59.10;;;;;;7414936;19;20262;-78
2023/10/10 15:17:40;;;;;;;18.27;5.22;;;26.20;60.50;;;;;;7387596;19;19998;-79
2023/10/10 15:20:12;;;;;;;21.08;5.70;;;26.20;60.20;;;;;;7387310;19;20002;-78
2023/10/10 15:22:44;;;;;;;22.38;5.32;;;26.10;60.30;;;;;;7388465;19;20093;-79
2023/10/10 15:25:22;;;;;;;11.18;4.97;;;26.20;60.50;;;;;;7389258;19;20014;-80
2023/10/10 15:27:54;;;;;;;14.30;5.82;;;26.10;61.40;;;;;;7412697;19;20007;-80
2023/10/10 15:43:32;;;;;;;25.02;6.00;;;25.90;64.10;;;;;;7386409;19;20007;-78
2023/10/10 15:46:34;;;;;;;13.25;5.30;;;25.80;62.70;;;;;;7406673;19;20028;-85
2023/10/10 15:51:59;;;;;;;18.30;5.60;;;25.60;62.00;;;;;;7397247;19;20003;-80
2023/10/10 16:17:19;;;;;;;16.67;5.20;;;24.80;72.80;;;;;;7421595;19;20015;-83
2023/10/10 16:23:43;;;;;;;;;;;;;;;;;;;;;
2023/10/10 16:29:42;;;;;;;18.55;5.25;;;24.20;73.80;;;;;;7399726;19;20272;-81
2023/10/10 16:35:40;;;;;;;13.50;5.83;;;23.70;75.60;;;;;;7425008;19;19998;-81
2023/10/10 16:38:11;;;;;;;13.88;5.28;;;23.70;75.80;;;;;;7422864;19;20256;-79
2023/10/10 16:40:43;;;;;;;40.53;5.75;;;23.70;75.60;;;;;;7420203;19;20398;-80
2023/10/10 16:43:14;;;;;;;18.42;4.93;;;23.50;75.70;;;;;;7420432;19;20014;-80
2023/10/10 16:46:09;;;;;;;14.02;5.50;;;23.50;75.90;;;;;;7416946;19;20014;-81
2023/10/10 16:48:41;;;;;;;24.30;5.88;;;23.30;76.40;;;;;;7415663;19;20014;-80
2023/10/10 16:51:42;;;;;;;12.27;5.25;;;23.30;76.70;;;;;;7444888;19;20010;-81
2023/10/10 16:54:30;;;;;;;28.73;6.13;;;23.20;76.80;;;;;;7420451;19;20011;-81
2023/10/10 16:57:04;;;;;;;13.50;5.07;;;23.20;77.10;;;;;;7422651;19;20006;-80
2023/10/10 16:59:35;;;;;;;11.00;4.72;;;23.20;77.20;;;;;;7421981;19;20070;-81
2023/10/10 17:02:03;;;;;;;18.05;5.57;;;23.20;77.10;;;;;;7423825;19;20087;-80
2023/10/10 17:04:33;;;;;;;11.63;5.13;;;23.10;76.90;;;;;;7412557;19;20038;-77
2023/10/10 17:07:04;;;;;;;18.40;5.63;;;23.10;76.90;;;;;;7408592;19;20006;-77
2023/10/10 17:09:57;;;;;;;;;;;;;;;;;;;;;
2023/10/10 17:12:42;;;;;;;13.68;5.30;;;23.00;77.50;;;;;;7443244;19;20081;-81
2023/10/10 17:15:21;;;;;;;22.73;5.93;;;23.00;78.50;;;;;;7424664;19;20035;-79
2023/10/10 17:17:50;;;;;;;15.52;5.60;;;22.90;78.80;;;;;;7419992;19;20002;-79
2023/10/10 17:20:42;;;;;;;19.40;5.78;;;22.90;79.00;;;;;;7407719;19;20099;-81
2023/10/10 17:26:30;;;;;;;23.97;5.73;;;22.70;79.70;;;;;;7388535;19;20014;-81
2023/10/10 17:29:00;;;;;;;17.77;5.55;;;22.60;79.90;;;;;;7385583;19;20011;-78
2023/10/10 17:31:29;;;;;;;14.53;5.73;;;22.50;80.00;;;;;;7386000;19;20033;-81
2023/10/10 17:34:01;;;;;;;13.07;5.65;;;22.50;80.30;;;;;;7383575;19;20049;-80
2023/10/10 17:36:30;;;;;;;15.93;5.85;;;22.40;80.30;;;;;;7408246;19;20397;-78
2023/10/10 17:39:00;;;;;;;18.15;5.85;;;22.30;80.50;;;;;;7386152;19;20496;-80
2023/10/10 17:41:34;;;;;;;24.93;6.83;;;22.30;81.10;;;;;;7386133;19;20027;-80
2023/10/10 17:44:08;;;;;;;16.95;6.07;;;22.30;81.60;;;;;;7384262;19;20007;-79
2023/10/10 17:46:37;;;;;;;10.82;5.40;;;22.30;81.20;;;;;;7386431;19;20015;-80
2023/10/10 17:49:06;;;;;;;15.10;5.53;;;22.20;80.90;;;;;;7387566;19;20013;-80
2023/10/10 17:52:00;;;;;;;;;;;;;;;;;;;;;
2023/10/10 17:57:41;;;;;;;17.77;5.60;;;22.00;81.10;;;;;;7283934;19;2004320;-79
2023/10/10 18:06:49;;;;;;;;;;;;;;;;;;;;;
2023/10/10 18:09:29;;;;;;;;;;;;;;;;;;;;;
2023/10/10 18:12:02;;;;;;;24.20;5.37;;;21.90;81.40;;;;;;7408796;19;20010;-80
2023/10/10 18:14:57;;;;;;;;;;;;;;;;;;;;;
2023/10/10 18:17:28;;;;;;;14.73;5.97;;;21.70;81.70;;;;;;7385091;19;20017;-80
2023/10/10 18:20:00;;;;;;;14.85;6.05;;;21.70;81.90;;;;;;7386236;19;20009;-79
2023/10/10 18:26:47;;;;;;;;;;;;;;;;;;;;;
2023/10/10 18:29:54;;;;;;;18.05;6.13;;;21.60;82.10;;;;;;7407014;19;20010;-82
2023/10/10 18:32:29;;;;;;;14.20;5.70;;;21.50;82.50;;;;;;7399639;19;20050;-77
2023/10/10 18:34:59;;;;;;;16.42;5.75;;;21.50;83.00;;;;;;7422746;19;20060;-80
2023/10/10 18:37:28;;;;;;;21.73;6.50;;;21.50;83.10;;;;;;7386597;19;20082;-80
2023/10/10 18:39:57;;;;;;;20.42;7.05;;;21.40;83.20;;;;;;7383913;19;20021;-80
2023/10/10 18:42:26;;;;;;;46.05;14.90;;;21.40;83.20;;;;;;7404573;19;20312;-80
2023/10/10 18:44:55;;;;;;;26.38;7.20;;;21.40;83.30;;;;;;7385860;19;20003;-80
2023/10/10 18:47:24;;;;;;;13.85;5.70;;;21.40;83.30;;;;;;7384616;19;20028;-80
2023/10/10 18:49:55;;;;;;;19.70;7.03;;;21.30;83.20;;;;;;7384182;19;20430;-80
2023/10/10 18:52:24;;;;;;;;;;;21.30;83.30;;;;;;7385135;19;20351;-80
2023/10/10 18:54:52;;;;;;;12.15;5.93;;;21.30;83.40;;;;;;7384303;19;19928;-79
2023/10/10 18:57:22;;;;;;;18.50;6.43;;;21.20;83.40;;;;;;7405082;19;20010;-79
2023/10/10 18:59:51;;;;;;;12.90;6.07;;;21.20;83.60;;;;;;7384153;19;20032;-78
2023/10/10 19:02:20;;;;;;;14.98;6.22;;;21.20;83.60;;;;;;7383903;19;20272;-78
2023/10/10 19:04:49;;;;;;;18.15;6.25;;;21.10;83.70;;;;;;7383886;19;20416;-80
2023/10/10 19:07:20;;;;;;;13.40;6.45;;;21.10;83.90;;;;;;7384628;19;20279;-79
2023/10/10 19:09:49;;;;;;;17.95;6.72;;;21.00;84.00;;;;;;7381329;19;20115;-80
2023/10/10 19:12:20;;;;;;;31.25;6.75;;;21.00;84.30;;;;;;7404673;19;20010;-79
2023/10/10 19:14:49;;;;;;;10.20;5.90;;;21.00;84.40;;;;;;7384639;19;20072;-80
2023/10/10 19:17:18;;;;;;;18.90;6.72;;;20.90;84.50;;;;;;7386043;19;20002;-80
2023/10/10 19:19:46;;;;;;;27.73;5.90;;;20.90;84.70;;;;;;7383297;19;20011;-80
2023/10/10 19:22:15;;;;;;;13.32;6.43;;;20.90;84.80;;;;;;7382412;19;20002;-80
2023/10/10 19:24:48;;;;;;;25.10;6.13;;;20.90;84.90;;;;;;7381688;19;20350;-80
2023/10/10 19:27:20;;;;;;;16.67;6.60;;;20.90;85.00;;;;;;7404885;19;20003;-79
2023/10/10 19:29:49;;;;;;;22.73;6.40;;;20.80;84.90;;;;;;7382625;19;20017;-79
2023/10/10 19:32:18;;;;;;;10.80;5.72;;;20.80;85.00;;;;;;7382390;19;20036;-79
2023/10/10 19:34:48;;;;;;;20.15;6.82;;;20.80;85.20;;;;;;7383017;19;20011;-79
2023/10/10 19:37:18;;;;;;;23.60;6.47;;;20.80;85.20;;;;;;7383079;19;20007;-80
2023/10/10 19:39:49;;;;;;;21.38;6.55;;;20.80;85.30;;;;;;7382946;19;20011;-80
2023/10/10 19:42:32;;;;;;;;;;;20.70;85.50;;;;;;7402550;19;19998;-80
2023/10/10 19:45:01;;;;;;;17.75;6.35;;;20.70;85.70;;;;;;7383300;19;19907;-79
2023/10/10 19:47:42;;;;;;;14.57;6.20;;;20.70;85.60;;;;;;7385154;19;20007;-81
2023/10/10 19:50:43;;;;;;;14.10;6.65;;;20.60;85.90;;;;;;7382110;19;20006;-82
2023/10/10 19:53:12;;;;;;;17.77;7.03;;;20.60;86.10;;;;;;7384972;19;20010;-78
2023/10/10 19:55:44;;;;;;;20.50;6.60;;;20.60;86.10;;;;;;7379791;19;20010;-79
2023/10/10 19:58:14;;;;;;;17.55;6.30;;;20.60;86.20;;;;;;7380893;19;20003;-79
2023/10/10 20:00:46;;;;;;;16.88;6.28;;;20.50;86.30;;;;;;7379488;19;20003;-79
2023/10/10 20:03:17;;;;;;;19.55;6.82;;;20.50;86.50;;;;;;7402143;19;20013;-80